createdAt,value
2019-03-06T00:01:09.176Z,95.80
2019-03-06T00:04:18.001Z,95.90
2019-03-06T00:07:27.475Z,96.00
2019-03-06T00:10:36.455Z,96.00
2019-03-06T00:13:45.214Z,96.10
2019-03-06T00:16:53.855Z,96.10
2019-03-06T00:20:05.637Z,96.20
2019-03-06T00:23:14.927Z,96.10
2019-03-06T00:26:24.631Z,96.30
2019-03-06T00:29:33.649Z,96.50
2019-03-06T00:32:42.524Z,96.60
2019-03-06T00:35:52.206Z,96.60
2019-03-06T00:39:01.234Z,96.70
2019-03-06T00:42:09.917Z,96.80
2019-03-06T00:45:18.780Z,96.90
2019-03-06T00:48:27.498Z,97.00
2019-03-06T00:51:37.614Z,97.00
2019-03-06T00:54:47.156Z,97.00
2019-03-06T00:57:55.990Z,97.10
2019-03-06T01:01:04.764Z,97.10
2019-03-06T01:04:13.303Z,97.20
2019-03-06T01:07:22.132Z,97.10
2019-03-06T01:10:30.686Z,97.20
2019-03-06T01:13:49.751Z,97.20
2019-03-06T01:16:57.113Z,97.30
2019-03-06T01:20:16.717Z,97.30
2019-03-06T01:23:26.601Z,97.20
2019-03-06T01:26:35.361Z,97.00
2019-03-06T01:29:54.827Z,96.90
2019-03-06T01:33:09.187Z,96.90
2019-03-06T01:36:43.405Z,96.80
2019-03-06T01:40:10.335Z,96.70
2019-03-06T01:43:27.760Z,96.50
2019-03-06T01:46:36.404Z,96.30
2019-03-06T01:49:44.916Z,96.50
2019-03-06T01:52:53.543Z,96.20
2019-03-06T01:56:03.343Z,96.30
2019-03-06T01:59:12.181Z,96.30
2019-03-06T02:02:21.393Z,96.30
2019-03-06T02:05:31.205Z,96.30
2019-03-06T02:08:39.980Z,96.60
2019-03-06T02:11:58.808Z,97.00
2019-03-06T02:15:08.986Z,97.00
2019-03-06T02:18:17.778Z,97.20
2019-03-06T02:21:26.474Z,97.50
2019-03-06T02:24:35.489Z,97.60
2019-03-06T02:27:44.329Z,97.60
2019-03-06T02:30:53.044Z,97.60
2019-03-06T02:34:03.311Z,97.50
2019-03-06T02:37:11.943Z,97.50
2019-03-06T02:40:22.410Z,97.60
2019-03-06T02:43:31.147Z,97.60
2019-03-06T02:46:39.902Z,97.30
2019-03-06T02:49:51.173Z,97.30
2019-03-06T02:53:10.297Z,97.40
2019-03-06T02:56:19.022Z,97.80
2019-03-06T02:59:55.440Z,98.10
2019-03-06T03:03:31.382Z,98.30
2019-03-06T03:06:46.270Z,98.20
2019-03-06T03:09:55.287Z,98.00
2019-03-06T03:13:04.026Z,98.10
2019-03-06T03:16:12.734Z,98.00
2019-03-06T03:19:21.716Z,98.40
2019-03-06T03:22:31.799Z,98.10
2019-03-06T03:25:38.866Z,98.50
2019-03-06T03:28:47.659Z,98.30
2019-03-06T03:32:06.739Z,98.20
2019-03-06T03:35:25.890Z,98.20
2019-03-06T03:38:34.629Z,98.00
2019-03-06T03:41:43.390Z,98.30
2019-03-06T03:44:52.163Z,98.70
2019-03-06T03:47:59.975Z,98.50
2019-03-06T03:51:18.817Z,98.50
2019-03-06T03:54:26.372Z,98.30
2019-03-06T03:57:46.612Z,98.50
2019-03-06T04:00:55.339Z,98.30
2019-03-06T04:04:03.890Z,98.50
2019-03-06T04:07:12.596Z,98.60
2019-03-06T04:10:21.790Z,98.70
2019-03-06T04:13:30.446Z,98.60
2019-03-06T04:16:39.438Z,98.50
2019-03-06T04:19:49.982Z,98.50
2019-03-06T04:22:58.508Z,98.90
2019-03-06T04:26:07.397Z,98.70
2019-03-06T04:29:16.216Z,98.40
2019-03-06T04:32:24.918Z,98.50
2019-03-06T04:35:33.676Z,98.60
2019-03-06T04:38:43.860Z,98.90
2019-03-06T04:41:52.656Z,98.80
2019-03-06T04:45:01.379Z,98.70
2019-03-06T04:48:10.161Z,98.80
2019-03-06T04:51:19.076Z,98.50
2019-03-06T04:54:27.668Z,98.30
2019-03-06T04:57:38.254Z,98.30
2019-03-06T05:00:45.368Z,98.30
2019-03-06T05:03:54.213Z,98.20
2019-03-06T05:07:22.119Z,98.00
2019-03-06T05:10:30.865Z,98.00
2019-03-06T05:13:39.621Z,98.00
2019-03-06T05:17:06.173Z,98.10
2019-03-06T05:20:14.978Z,98.20
2019-03-06T05:23:25.543Z,98.00
2019-03-06T05:26:34.187Z,98.10
2019-03-06T05:29:42.762Z,98.20
2019-03-06T05:32:51.400Z,98.40
2019-03-06T05:37:01.916Z,98.60
2019-03-06T05:40:11.100Z,98.50
2019-03-06T05:43:19.702Z,98.70
2019-03-06T05:46:28.574Z,98.80
2019-03-06T05:49:37.390Z,98.70
2019-03-06T05:52:46.069Z,98.80
2019-03-06T05:55:56.105Z,98.70
2019-03-06T05:59:04.904Z,98.60
2019-03-06T06:02:27.937Z,98.60
2019-03-06T06:05:47.879Z,98.60
2019-03-06T06:08:58.236Z,98.40
2019-03-06T06:12:06.877Z,98.10
2019-03-06T06:15:15.613Z,98.00
2019-03-06T06:18:24.334Z,97.80
2019-03-06T06:21:45.042Z,97.70
2019-03-06T06:24:53.674Z,97.90
2019-03-06T06:28:02.499Z,98.00
2019-03-06T06:31:11.133Z,98.00
2019-03-06T06:34:19.830Z,98.10
2019-03-06T06:37:28.387Z,97.90
2019-03-06T06:40:37.406Z,98.10
2019-03-06T06:43:46.089Z,97.70
2019-03-06T06:46:55.979Z,97.90
2019-03-06T06:50:14.864Z,97.90
2019-03-06T06:53:43.734Z,98.20
2019-03-06T06:57:42.565Z,97.90
2019-03-06T07:02:05.448Z,97.90
2019-03-06T07:05:41.050Z,98.00
2019-03-06T07:09:28.221Z,97.90
2019-03-06T07:12:58.550Z,98.00
2019-03-06T07:16:42.989Z,97.90
2019-03-06T07:19:59.082Z,98.00
2019-03-06T07:23:24.849Z,97.80
2019-03-06T07:26:49.249Z,97.80
2019-03-06T07:30:25.880Z,97.90
2019-03-06T07:34:08.698Z,97.60
2019-03-06T07:37:32.832Z,97.60
2019-03-06T07:41:12.449Z,97.70
2019-03-06T07:44:44.124Z,97.90
2019-03-06T07:48:32.795Z,97.90
2019-03-06T07:52:18.573Z,98.10
2019-03-06T07:55:41.858Z,98.00
2019-03-06T07:58:58.438Z,98.10
2019-03-06T08:02:12.431Z,98.00
2019-03-06T08:05:21.149Z,98.00
2019-03-06T08:08:40.346Z,97.90
2019-03-06T08:12:20.155Z,98.00
2019-03-06T08:15:49.882Z,98.40
2019-03-06T08:19:17.996Z,98.40
2019-03-06T08:22:48.372Z,98.70
2019-03-06T08:25:56.969Z,98.40
2019-03-06T08:29:09.495Z,98.60
2019-03-06T08:32:33.522Z,98.40
2019-03-06T08:35:43.168Z,98.40
2019-03-06T08:39:01.978Z,98.20
2019-03-06T08:42:10.560Z,97.50
2019-03-06T08:45:20.983Z,97.80
2019-03-06T08:48:36.995Z,97.40
2019-03-06T08:52:12.454Z,97.50
2019-03-06T08:55:27.354Z,97.40
2019-03-06T08:58:41.808Z,97.60
2019-03-06T09:02:00.924Z,97.20
2019-03-06T09:05:38.800Z,97.10
2019-03-06T09:09:05.185Z,97.70
2019-03-06T09:12:28.374Z,97.40
2019-03-06T09:15:50.050Z,97.40
2019-03-06T09:19:20.826Z,96.90
2019-03-06T09:22:46.398Z,97.20
2019-03-06T09:26:04.632Z,97.10
2019-03-06T09:29:29.500Z,97.20
2019-03-06T09:32:43.879Z,97.10
2019-03-06T09:36:04.458Z,97.00
2019-03-06T09:39:32.575Z,97.00
2019-03-06T09:42:51.543Z,96.70
2019-03-06T09:46:26.903Z,96.60
2019-03-06T09:49:53.374Z,96.50
2019-03-06T09:53:10.028Z,96.60
2019-03-06T09:56:40.584Z,96.90
2019-03-06T10:00:33.930Z,96.80
2019-03-06T10:03:57.005Z,96.70
2019-03-06T10:07:24.791Z,96.60
2019-03-06T10:10:47.575Z,96.40
2019-03-06T10:14:12.553Z,96.30
2019-03-06T10:17:51.599Z,96.20
2019-03-06T10:21:14.599Z,96.00
2019-03-06T10:24:23.179Z,95.80
2019-03-06T10:27:31.859Z,95.70
2019-03-06T10:30:40.732Z,96.10
2019-03-06T10:33:49.377Z,96.00
2019-03-06T10:36:58.064Z,95.70
2019-03-06T10:40:09.039Z,95.70
2019-03-06T10:43:17.637Z,95.70
2019-03-06T10:46:26.367Z,95.60
2019-03-06T10:49:35.118Z,95.60
2019-03-06T10:52:43.871Z,95.50
2019-03-06T10:56:03.751Z,95.40
2019-03-06T10:59:12.740Z,95.50
2019-03-06T11:02:31.676Z,95.30
2019-03-06T11:05:40.426Z,95.20
2019-03-06T11:08:49.479Z,95.30
2019-03-06T11:12:10.072Z,94.70
2019-03-06T11:15:29.398Z,94.50
2019-03-06T11:18:38.095Z,94.30
2019-03-06T11:21:46.750Z,93.70
2019-03-06T11:24:55.634Z,93.60
2019-03-06T11:28:04.845Z,93.30
2019-03-06T11:31:25.157Z,93.50
2019-03-06T11:34:33.834Z,93.50
2019-03-06T11:37:42.969Z,93.50
2019-03-06T11:40:51.830Z,93.50
2019-03-06T11:44:00.515Z,93.70
2019-03-06T11:47:09.190Z,93.60
2019-03-06T11:50:18.849Z,93.50
2019-03-06T11:53:37.695Z,93.50
2019-03-06T11:56:47.353Z,93.50
2019-03-06T11:59:56.235Z,93.20
2019-03-06T12:03:06.557Z,93.20
2019-03-06T12:06:15.186Z,93.00
2019-03-06T12:09:42.340Z,92.80
2019-03-06T12:12:51.046Z,92.90
2019-03-06T12:15:59.737Z,92.70
2019-03-06T12:19:08.584Z,92.60
2019-03-06T12:22:17.359Z,92.60
2019-03-06T12:25:25.942Z,92.60
2019-03-06T12:28:35.799Z,92.50
2019-03-06T12:31:44.683Z,92.70
2019-03-06T12:35:03.444Z,92.60
2019-03-06T12:38:12.037Z,92.50
2019-03-06T12:41:20.613Z,92.60
2019-03-06T12:44:29.220Z,92.80
2019-03-06T12:47:38.105Z,92.60
2019-03-06T12:50:53.978Z,92.80
2019-03-06T12:53:58.301Z,92.80
2019-03-06T12:57:17.181Z,93.10
2019-03-06T13:00:26.190Z,92.50
2019-03-06T13:03:47.347Z,92.40
2019-03-06T13:06:55.644Z,92.40
2019-03-06T13:10:04.338Z,92.20
2019-03-06T13:13:13.046Z,92.20
2019-03-06T13:16:21.713Z,92.20
2019-03-06T13:19:30.432Z,92.10
2019-03-06T13:22:39.153Z,92.20
2019-03-06T13:25:47.842Z,92.10
2019-03-06T13:28:57.648Z,92.10
2019-03-06T13:32:16.846Z,92.10
2019-03-06T13:35:25.791Z,92.10
2019-03-06T13:38:54.486Z,92.10
2019-03-06T13:42:07.239Z,92.20
2019-03-06T13:45:16.627Z,92.30
2019-03-06T13:48:35.447Z,92.20
2019-03-06T13:51:58.223Z,92.20
2019-03-06T13:55:08.764Z,91.90
2019-03-06T13:58:17.344Z,91.60
2019-03-06T14:01:26.102Z,91.50
2019-03-06T14:04:34.737Z,90.90
2019-03-06T14:07:43.428Z,91.10
2019-03-06T14:10:52.196Z,91.10
2019-03-06T14:14:01.024Z,91.00
2019-03-06T14:17:09.824Z,91.20
2019-03-06T14:20:19.062Z,91.50
2019-03-06T14:23:35.543Z,91.80
2019-03-06T14:26:47.868Z,91.70
2019-03-06T14:30:04.476Z,92.00
2019-03-06T14:33:11.923Z,92.10
2019-03-06T14:36:20.657Z,92.00
2019-03-06T14:39:31.569Z,92.00
2019-03-06T14:42:50.407Z,91.90
2019-03-06T14:45:58.991Z,92.00
2019-03-06T14:49:07.868Z,92.00
2019-03-06T14:52:16.586Z,92.10
2019-03-06T14:55:25.127Z,92.00
2019-03-06T14:58:33.801Z,91.80
2019-03-06T15:01:42.698Z,91.80
2019-03-06T15:04:51.584Z,91.80
2019-03-06T15:08:00.380Z,91.60
2019-03-06T15:11:09.059Z,91.60
2019-03-06T15:14:17.898Z,91.90
2019-03-06T15:17:26.497Z,91.70
2019-03-06T15:20:35.097Z,91.60
2019-03-06T15:23:43.809Z,91.60
2019-03-06T15:26:52.663Z,91.50
2019-03-06T15:30:01.286Z,91.50
2019-03-06T15:33:10.050Z,91.60
2019-03-06T15:36:29.183Z,91.70
2019-03-06T15:39:48.485Z,91.60
2019-03-06T15:42:57.754Z,91.90
2019-03-06T15:46:16.935Z,92.00
2019-03-06T15:49:25.713Z,91.80
2019-03-06T15:52:34.281Z,92.20
2019-03-06T15:55:43.377Z,91.90
2019-03-06T15:59:02.642Z,92.10
2019-03-06T16:02:11.529Z,92.60
2019-03-06T16:05:21.079Z,92.50
2019-03-06T16:08:30.163Z,92.50
2019-03-06T16:11:38.884Z,92.00
2019-03-06T16:14:51.572Z,91.90
2019-03-06T16:18:02.391Z,91.70
2019-03-06T16:21:21.528Z,91.90
2019-03-06T16:24:28.614Z,91.80
2019-03-06T16:27:37.177Z,91.90
2019-03-06T16:30:46.356Z,92.50
2019-03-06T16:34:05.968Z,93.20
2019-03-06T16:37:24.806Z,93.90
2019-03-06T16:40:34.984Z,94.10
2019-03-06T16:43:42.044Z,94.00
2019-03-06T16:46:50.815Z,94.50
2019-03-06T16:49:59.497Z,94.30
2019-03-06T16:53:08.272Z,94.10
2019-03-06T16:56:16.969Z,94.20
2019-03-06T16:59:25.884Z,94.10
2019-03-06T17:02:34.586Z,93.80
2019-03-06T17:05:43.326Z,93.40
2019-03-06T17:08:51.836Z,93.70
2019-03-06T17:12:00.865Z,94.20
2019-03-06T17:15:09.953Z,95.70
2019-03-06T17:18:18.579Z,97.20
2019-03-06T17:21:30.005Z,97.70
2019-03-06T17:24:48.978Z,97.70
2019-03-06T17:27:57.698Z,98.40
2019-03-06T17:31:06.691Z,99.10
2019-03-06T17:34:15.678Z,99.30
2019-03-06T17:37:35.048Z,99.90
2019-03-06T17:40:54.138Z,99.40
2019-03-06T17:44:02.768Z,99.40
2019-03-06T17:47:12.087Z,99.90
2019-03-06T17:50:31.440Z,99.90
2019-03-06T17:53:50.411Z,99.90
2019-03-06T17:56:59.104Z,99.90
2019-03-06T18:00:16.706Z,99.90
2019-03-06T18:03:25.220Z,99.90
2019-03-06T18:06:33.815Z,99.90
2019-03-06T18:09:42.455Z,99.90
2019-03-06T18:12:51.167Z,99.50
2019-03-06T18:16:00.050Z,99.50
2019-03-06T18:19:08.719Z,99.30
2019-03-06T18:22:18.346Z,99.50
2019-03-06T18:25:25.531Z,99.70
2019-03-06T18:28:35.407Z,99.90
2019-03-06T18:31:44.305Z,99.90
2019-03-06T18:34:53.073Z,99.90
2019-03-06T18:38:14.264Z,99.90
2019-03-06T18:41:23.486Z,99.90
2019-03-06T18:44:32.346Z,99.90
2019-03-06T18:47:41.151Z,99.90
2019-03-06T18:50:48.364Z,99.90
2019-03-06T18:53:58.033Z,99.90
2019-03-06T18:57:07.872Z,99.90
2019-03-06T19:00:19.967Z,99.90
2019-03-06T19:03:28.694Z,99.80
2019-03-06T19:06:37.565Z,99.70
2019-03-06T19:09:46.148Z,99.60
2019-03-06T19:12:54.837Z,99.30
2019-03-06T19:16:03.484Z,99.50
2019-03-06T19:19:12.051Z,99.30
2019-03-06T19:22:20.812Z,99.40
2019-03-06T19:25:31.237Z,99.20
2019-03-06T19:28:39.935Z,99.00
2019-03-06T19:31:58.825Z,99.30
2019-03-06T19:35:07.525Z,99.30
2019-03-06T19:38:16.209Z,99.20
2019-03-06T19:41:24.863Z,99.20
2019-03-06T19:44:33.806Z,99.30
2019-03-06T19:47:42.465Z,99.10
2019-03-06T19:50:51.159Z,99.20
2019-03-06T19:53:59.897Z,99.90
2019-03-06T19:57:08.821Z,99.50
2019-03-06T20:00:17.685Z,99.50
2019-03-06T20:03:26.356Z,99.40
2019-03-06T20:06:35.088Z,99.60
2019-03-06T20:09:43.952Z,99.20
2019-03-06T20:12:52.636Z,99.30
2019-03-06T20:16:01.320Z,99.10
2019-03-06T20:19:10.121Z,99.40
2019-03-06T20:22:18.913Z,99.40
2019-03-06T20:25:27.710Z,99.20
2019-03-06T20:28:36.378Z,98.90
2019-03-06T20:31:45.132Z,98.90
2019-03-06T20:34:53.706Z,98.70
2019-03-06T20:38:12.875Z,98.70
2019-03-06T20:41:22.370Z,98.40
2019-03-06T20:44:31.032Z,98.50
2019-03-06T20:47:39.708Z,98.50
2019-03-06T20:50:50.271Z,98.40
2019-03-06T20:53:58.920Z,98.30
2019-03-06T20:57:07.631Z,98.30
2019-03-06T21:00:27.470Z,98.00
2019-03-06T21:03:36.062Z,98.00
2019-03-06T21:06:44.740Z,98.00
2019-03-06T21:09:53.268Z,98.10
2019-03-06T21:13:12.077Z,98.00
2019-03-06T21:16:20.771Z,98.00
2019-03-06T21:19:30.387Z,98.00
2019-03-06T21:22:38.987Z,97.90
2019-03-06T21:25:57.859Z,97.60
2019-03-06T21:29:06.691Z,97.60
2019-03-06T21:32:15.488Z,97.40
2019-03-06T21:35:24.350Z,97.50
2019-03-06T21:38:33.089Z,97.20
2019-03-06T21:41:41.758Z,97.50
2019-03-06T21:44:50.535Z,97.50
2019-03-06T21:47:59.299Z,97.30
2019-03-06T21:51:07.983Z,97.20
2019-03-06T21:54:16.651Z,97.00
2019-03-06T21:57:25.245Z,97.00
2019-03-06T22:00:33.908Z,97.00
2019-03-06T22:03:42.601Z,96.80
2019-03-06T22:06:51.320Z,96.50
2019-03-06T22:10:00.077Z,96.50
2019-03-06T22:13:08.753Z,96.40
2019-03-06T22:16:29.142Z,96.60
2019-03-06T22:19:37.733Z,96.30
2019-03-06T22:22:46.579Z,96.50
2019-03-06T22:25:55.547Z,96.30
2019-03-06T22:29:04.222Z,96.20
2019-03-06T22:32:12.907Z,96.20
2019-03-06T22:35:21.722Z,96.10
2019-03-06T22:38:30.406Z,96.00
2019-03-06T22:41:39.081Z,96.10
2019-03-06T22:44:47.789Z,95.80
2019-03-06T22:47:56.514Z,95.60
2019-03-06T22:51:05.187Z,95.60
2019-03-06T22:54:13.863Z,95.50
2019-03-06T22:57:22.571Z,95.30
2019-03-06T23:00:53.819Z,95.50
2019-03-06T23:04:02.350Z,95.20
2019-03-06T23:07:11.294Z,95.10
2019-03-06T23:10:19.978Z,95.20
2019-03-06T23:13:28.672Z,95.30
2019-03-06T23:16:38.617Z,95.30
2019-03-06T23:19:47.611Z,95.10
2019-03-06T23:22:57.071Z,94.90
2019-03-06T23:26:05.636Z,95.00
2019-03-06T23:29:14.282Z,94.70
2019-03-06T23:32:23.262Z,94.60
2019-03-06T23:35:31.976Z,94.60
2019-03-06T23:38:40.648Z,94.60
2019-03-06T23:41:49.245Z,94.60
2019-03-06T23:44:58.165Z,94.60
2019-03-06T23:48:06.835Z,94.70
2019-03-06T23:51:30.561Z,94.80
2019-03-06T23:54:39.136Z,94.90
2019-03-06T23:57:49.537Z,95.10
